Time;durP1;ratioP1;P1;durP2;ratioP2;P2;SDS_P1;SDS_P2;PMS_P1;PMS_P2;Temp;Humidity;BMP_temperature;BMP_pressure;BME280_temperature;BME280_humidity;BME280_pressure;Samples;Min_cycle;Max_cycle;Signal;HPM_P1;HPM_P2
2022/03/13 00:00:36;;;;;;;15.60;7.70;;;;;;;;;;4180638;28;20463;-87
2022/03/13 00:02:39;;;;;;;14.30;8.45;;;;;;;;;;4182365;28;20033;-87
2022/03/13 00:04:40;;;;;;;13.95;7.93;;;;;;;;;;4180448;28;20041;-87
2022/03/13 00:06:43;;;;;;;13.45;8.10;;;;;;;;;;4181241;28;20045;-87
2022/03/13 00:08:54;;;;;;;17.58;8.57;;;;;;;;;;4180965;28;20053;-87
2022/03/13 00:10:56;;;;;;;17.48;8.38;;;;;;;;;;4181757;28;20077;-88
2022/03/13 00:12:58;;;;;;;15.35;7.78;;;;;;;;;;4181002;28;20109;-87
2022/03/13 00:15:05;;;;;;;14.45;8.18;;;;;;;;;;4182610;28;20049;-87
2022/03/13 00:17:07;;;;;;;13.82;7.93;;;;;;;;;;4192665;28;20055;-87
2022/03/13 00:19:10;;;;;;;14.63;8.77;;;;;;;;;;4182334;28;20053;-87
2022/03/13 00:21:11;;;;;;;17.13;8.52;;;;;;;;;;4184752;28;20087;-87
2022/03/13 00:23:12;;;;;;;13.80;7.40;;;;;;;;;;4184716;28;20084;-87
2022/03/13 00:25:15;;;;;;;14.43;7.82;;;;;;;;;;4183756;28;20055;-86
2022/03/13 00:27:16;;;;;;;14.32;7.72;;;;;;;;;;4186098;28;20056;-86
2022/03/13 00:29:18;;;;;;;12.85;7.28;;;;;;;;;;4168803;28;20049;-87
2022/03/13 00:31:20;;;;;;;14.88;8.05;;;;;;;;;;4183806;28;20098;-87
2022/03/13 00:33:21;;;;;;;14.63;7.88;;;;;;;;;;4183375;28;20056;-86
2022/03/13 00:35:23;;;;;;;15.98;8.75;;;;;;;;;;4183021;28;20053;-87
2022/03/13 00:37:24;;;;;;;16.27;8.43;;;;;;;;;;4183940;28;20040;-87
2022/03/13 00:39:25;;;;;;;13.70;8.00;;;;;;;;;;4167274;28;20048;-86
2022/03/13 00:41:26;;;;;;;20.42;8.50;;;;;;;;;;4167305;28;20443;-87
2022/03/13 00:43:28;;;;;;;14.63;8.95;;;;;;;;;;4183879;28;20045;-87
2022/03/13 00:45:29;;;;;;;16.92;8.82;;;;;;;;;;4167360;28;20076;-88
2022/03/13 00:47:31;;;;;;;15.18;8.18;;;;;;;;;;4169999;28;20080;-87
2022/03/13 00:49:33;;;;;;;13.38;7.70;;;;;;;;;;4200167;28;20106;-86
2022/03/13 00:51:34;;;;;;;16.10;8.30;;;;;;;;;;4202903;28;20045;-85
2022/03/13 00:53:38;;;;;;;14.75;8.02;;;;;;;;;;4202762;28;20029;-86
2022/03/13 00:55:39;;;;;;;16.92;7.88;;;;;;;;;;4201945;28;20561;-86
2022/03/13 00:57:43;;;;;;;18.67;8.60;;;;;;;;;;4198914;28;20064;-86
2022/03/13 00:59:44;;;;;;;14.52;7.85;;;;;;;;;;4197864;28;20041;-86
2022/03/13 01:01:45;;;;;;;19.15;8.65;;;;;;;;;;4178439;28;20515;-86
2022/03/13 01:03:48;;;;;;;13.93;8.27;;;;;;;;;;4199559;28;20109;-86
2022/03/13 01:05:50;;;;;;;14.77;7.50;;;;;;;;;;4202242;28;20059;-86
2022/03/13 01:07:52;;;;;;;13.73;8.23;;;;;;;;;;4202089;28;20037;-86
2022/03/13 01:09:54;;;;;;;19.48;9.40;;;;;;;;;;4198195;28;20052;-87
2022/03/13 01:11:55;;;;;;;20.95;8.98;;;;;;;;;;4193209;28;20053;-87
2022/03/13 01:13:56;;;;;;;16.17;8.35;;;;;;;;;;4197501;28;20105;-87
2022/03/13 01:16:11;;;;;;;15.48;8.35;;;;;;;;;;4202207;28;20052;-87
2022/03/13 01:18:12;;;;;;;16.27;8.65;;;;;;;;;;4185773;28;20037;-87
2022/03/13 01:20:18;;;;;;;17.88;8.95;;;;;;;;;;4201508;28;20068;-87
2022/03/13 01:22:19;;;;;;;14.45;8.13;;;;;;;;;;4201808;28;20078;-87
2022/03/13 01:24:24;;;;;;;15.18;8.25;;;;;;;;;;4184066;28;20041;-87
2022/03/13 01:26:26;;;;;;;16.98;8.82;;;;;;;;;;4202041;28;20049;-86
2022/03/13 01:28:27;;;;;;;14.52;8.57;;;;;;;;;;4201810;28;20065;-85
2022/03/13 01:30:28;;;;;;;16.52;8.52;;;;;;;;;;4201129;28;20036;-86
2022/03/13 01:32:32;;;;;;;14.10;8.32;;;;;;;;;;4199952;28;20045;-86
2022/03/13 01:34:38;;;;;;;16.27;8.40;;;;;;;;;;4191731;28;20053;-87
2022/03/13 01:36:40;;;;;;;14.20;8.18;;;;;;;;;;4188057;28;20107;-88
2022/03/13 01:38:42;;;;;;;14.23;8.38;;;;;;;;;;4188862;28;20049;-88
2022/03/13 01:40:43;;;;;;;14.27;7.90;;;;;;;;;;4185882;28;20074;-87
2022/03/13 01:42:44;;;;;;;16.20;7.80;;;;;;;;;;4185644;28;20053;-87
2022/03/13 01:44:46;;;;;;;15.10;8.13;;;;;;;;;;4186720;28;20049;-86
2022/03/13 01:46:48;;;;;;;15.27;8.35;;;;;;;;;;4186343;28;20081;-87
2022/03/13 01:48:53;;;;;;;16.27;8.32;;;;;;;;;;4185039;28;20079;-86
2022/03/13 01:50:54;;;;;;;14.77;8.38;;;;;;;;;;4185563;28;20045;-86
2022/03/13 01:52:56;;;;;;;14.05;7.97;;;;;;;;;;4184915;28;20056;-86
2022/03/13 01:54:57;;;;;;;16.98;8.70;;;;;;;;;;4183084;28;20060;-86
2022/03/13 01:57:01;;;;;;;16.20;8.77;;;;;;;;;;4183079;28;20127;-87
2022/03/13 01:59:04;;;;;;;18.00;8.65;;;;;;;;;;4184051;28;20060;-87
2022/03/13 02:01:05;;;;;;;17.60;8.52;;;;;;;;;;4184055;28;20045;-87
2022/03/13 02:03:07;;;;;;;12.68;7.53;;;;;;;;;;4183727;28;20041;-87
2022/03/13 02:05:19;;;;;;;22.52;9.98;;;;;;;;;;4166164;28;20352;-88
2022/03/13 02:07:21;;;;;;;19.75;8.55;;;;;;;;;;4184035;28;20096;-86
2022/03/13 02:09:23;;;;;;;16.83;8.90;;;;;;;;;;4184999;28;20049;-87
2022/03/13 02:11:47;;;;;;;17.42;8.90;;;;;;;;;;4185005;28;20450;-87
2022/03/13 02:13:48;;;;;;;17.42;8.45;;;;;;;;;;4182465;28;20045;-87
2022/03/13 02:15:49;;;;;;;17.65;8.98;;;;;;;;;;4167342;28;20136;-87
2022/03/13 02:17:50;;;;;;;15.82;8.68;;;;;;;;;;4183202;28;20102;-87
2022/03/13 02:19:51;;;;;;;13.38;7.93;;;;;;;;;;4168240;28;20548;-86
2022/03/13 02:21:53;;;;;;;16.60;8.48;;;;;;;;;;4183054;28;20064;-87
2022/03/13 02:24:00;;;;;;;21.25;9.80;;;;;;;;;;4183262;28;20053;-87
2022/03/13 02:26:02;;;;;;;17.42;8.88;;;;;;;;;;4183552;28;20526;-87
2022/03/13 02:28:03;;;;;;;15.75;8.27;;;;;;;;;;4166954;28;20462;-87
2022/03/13 02:30:04;;;;;;;16.80;8.50;;;;;;;;;;4182706;28;20141;-87
2022/03/13 02:32:07;;;;;;;16.92;8.98;;;;;;;;;;4183185;28;20045;-87
2022/03/13 02:34:11;;;;;;;15.52;8.57;;;;;;;;;;4182600;28;20056;-87
2022/03/13 02:36:34;;;;;;;16.50;9.20;;;;;;;;;;4184415;28;20048;-87
2022/03/13 02:38:35;;;;;;;19.40;8.23;;;;;;;;;;4184252;28;20552;-86
2022/03/13 02:40:38;;;;;;;16.38;8.98;;;;;;;;;;4182682;28;20588;-86
2022/03/13 02:42:39;;;;;;;16.10;9.00;;;;;;;;;;4183607;28;20422;-86
2022/03/13 02:44:40;;;;;;;18.25;8.63;;;;;;;;;;4183952;28;20045;-87
2022/03/13 02:46:48;;;;;;;14.40;8.48;;;;;;;;;;4182474;28;20211;-87
2022/03/13 02:48:51;;;;;;;18.35;8.60;;;;;;;;;;4182325;28;20542;-86
2022/03/13 02:50:53;;;;;;;15.93;8.23;;;;;;;;;;4181605;28;20049;-86
2022/03/13 02:52:55;;;;;;;14.98;8.65;;;;;;;;;;4182641;28;20083;-87
2022/03/13 02:54:56;;;;;;;17.63;8.82;;;;;;;;;;4181901;28;20037;-87
2022/03/13 02:56:58;;;;;;;16.10;7.95;;;;;;;;;;4182502;28;20049;-87
2022/03/13 02:58:59;;;;;;;16.23;9.05;;;;;;;;;;4184215;28;20072;-87
2022/03/13 03:01:00;;;;;;;18.42;8.85;;;;;;;;;;4166049;28;20045;-86
2022/03/13 03:03:02;;;;;;;18.13;8.73;;;;;;;;;;4181202;28;20111;-87
2022/03/13 03:05:07;;;;;;;16.20;8.38;;;;;;;;;;4181355;28;20045;-87
2022/03/13 03:07:08;;;;;;;15.82;8.15;;;;;;;;;;4181256;28;20138;-86
2022/03/13 03:09:10;;;;;;;16.23;8.75;;;;;;;;;;4181502;28;20059;-86
2022/03/13 03:11:12;;;;;;;17.67;9.05;;;;;;;;;;4180308;28;20525;-87
2022/03/13 03:13:14;;;;;;;18.73;8.77;;;;;;;;;;4181329;28;20041;-87
2022/03/13 03:15:18;;;;;;;17.77;9.35;;;;;;;;;;4163732;28;20068;-86
2022/03/13 03:17:19;;;;;;;15.23;8.63;;;;;;;;;;4181136;28;20418;-87
2022/03/13 03:19:21;;;;;;;14.60;8.52;;;;;;;;;;4181359;28;20049;-87
2022/03/13 03:21:23;;;;;;;15.68;9.40;;;;;;;;;;4181838;28;20045;-87
2022/03/13 03:23:24;;;;;;;16.77;9.40;;;;;;;;;;4181688;28;20045;-87
2022/03/13 03:25:26;;;;;;;18.60;8.95;;;;;;;;;;4182221;28;20066;-87
2022/03/13 03:27:30;;;;;;;18.02;9.20;;;;;;;;;;4182971;28;20072;-87
2022/03/13 03:29:32;;;;;;;17.40;9.65;;;;;;;;;;4180155;28;20057;-87
2022/03/13 03:31:33;;;;;;;16.17;8.70;;;;;;;;;;4180302;28;20079;-87
2022/03/13 03:33:35;;;;;;;16.02;9.15;;;;;;;;;;4180149;28;20140;-86
2022/03/13 03:35:39;;;;;;;16.08;8.55;;;;;;;;;;4163730;28;20046;-86
2022/03/13 03:37:41;;;;;;;17.50;8.85;;;;;;;;;;4179906;28;20064;-86
2022/03/13 03:39:43;;;;;;;19.77;10.18;;;;;;;;;;4179716;28;20049;-86
2022/03/13 03:41:45;;;;;;;15.05;8.18;;;;;;;;;;4180963;28;20554;-87
2022/03/13 03:43:47;;;;;;;18.02;9.15;;;;;;;;;;4180375;28;20080;-86
2022/03/13 03:45:48;;;;;;;17.02;8.48;;;;;;;;;;4163624;28;20143;-87
2022/03/13 03:47:50;;;;;;;16.55;8.45;;;;;;;;;;4179730;28;20049;-87
2022/03/13 03:49:52;;;;;;;17.63;8.50;;;;;;;;;;4163269;28;20042;-87
2022/03/13 03:51:53;;;;;;;18.55;9.40;;;;;;;;;;4180763;28;20048;-87
2022/03/13 03:53:55;;;;;;;20.70;9.10;;;;;;;;;;4179849;28;20056;-87
2022/03/13 03:55:58;;;;;;;14.73;8.85;;;;;;;;;;4182805;28;20572;-87
2022/03/13 03:57:59;;;;;;;13.68;8.55;;;;;;;;;;4183308;28;20457;-87
2022/03/13 04:00:00;;;;;;;14.93;8.43;;;;;;;;;;4183107;28;20510;-86
2022/03/13 04:02:01;;;;;;;17.55;8.80;;;;;;;;;;4183576;28;20037;-87
2022/03/13 04:04:02;;;;;;;18.05;9.52;;;;;;;;;;4199930;28;20091;-87
2022/03/13 04:06:03;;;;;;;18.13;8.90;;;;;;;;;;4183432;28;20396;-87
2022/03/13 04:08:06;;;;;;;18.52;8.73;;;;;;;;;;4166744;28;20049;-87
2022/03/13 04:10:10;;;;;;;17.38;8.82;;;;;;;;;;4183343;28;20049;-87
2022/03/13 04:12:12;;;;;;;16.95;9.65;;;;;;;;;;4183113;28;20055;-87
2022/03/13 04:14:14;;;;;;;18.05;9.43;;;;;;;;;;4184294;28;20231;-87
2022/03/13 04:16:15;;;;;;;17.70;9.77;;;;;;;;;;4183138;28;20045;-87
2022/03/13 04:18:16;;;;;;;17.60;8.93;;;;;;;;;;4166456;28;20037;-88
2022/03/13 04:20:18;;;;;;;15.68;8.15;;;;;;;;;;4182622;28;20415;-87
2022/03/13 04:22:19;;;;;;;17.25;8.90;;;;;;;;;;4182913;28;20099;-88
2022/03/13 04:24:21;;;;;;;17.73;9.60;;;6.60;50.30;;;;;;4182902;28;20052;-87
2022/03/13 04:26:22;;;;;;;16.90;8.93;;;8.00;92.60;;;;;;4166336;28;20057;-87
2022/03/13 04:28:23;;;;;;;18.25;9.00;;;6.90;92.50;;;;;;4166200;28;20508;-87
2022/03/13 04:30:29;;;;;;;17.42;9.32;;;;;;;;;;4182657;28;20064;-87
2022/03/13 04:32:30;;;;;;;21.08;8.80;;;;;;;;;;4182556;28;20052;-87
2022/03/13 04:34:31;;;;;;;16.40;9.07;;;7.70;92.70;;;;;;4184386;28;20124;-87
2022/03/13 04:36:37;;;;;;;16.17;8.18;;;6.70;92.60;;;;;;4182368;28;20051;-87
2022/03/13 04:38:39;;;;;;;17.80;9.48;;;6.70;92.40;;;;;;4184052;28;20045;-87
2022/03/13 04:40:39;;;;;;;18.00;9.13;;;6.70;92.50;;;;;;4182867;28;20056;-87
2022/03/13 04:42:40;;;;;;;18.52;8.95;;;6.70;92.60;;;;;;4198784;28;20045;-87
2022/03/13 04:44:45;;;;;;;15.95;9.13;;;7.30;92.70;;;;;;4182723;28;20081;-87
2022/03/13 04:46:45;;;;;;;18.95;9.82;;;6.60;92.50;;;;;;4182070;28;20049;-87
2022/03/13 04:48:48;;;;;;;15.30;9.18;;;6.90;92.70;;;;;;4182670;28;20220;-87
2022/03/13 04:50:49;;;;;;;16.75;9.25;;;6.50;92.60;;;;;;4166560;28;20637;-87
2022/03/13 04:52:50;;;;;;;16.98;8.80;;;6.50;92.80;;;;;;4182882;28;20037;-87
2022/03/13 04:54:51;;;;;;;18.80;9.63;;;7.30;93.10;;;;;;4182755;28;20442;-87
2022/03/13 04:56:53;;;;;;;16.45;9.10;;;6.40;92.90;;;;;;4183424;28;20044;-87
2022/03/13 04:58:53;;;;;;;16.02;8.77;;;6.30;92.90;;;;;;4184090;28;20044;-86
2022/03/13 05:00:54;;;;;;;15.32;8.73;;;7.00;93.10;;;;;;4182904;28;20043;-87
2022/03/13 05:02:55;;;;;;;16.42;8.10;;;6.30;93.30;;;;;;4165646;28;20096;-88
2022/03/13 05:04:56;;;;;;;19.02;9.55;;;7.10;93.30;;;;;;4165467;28;20050;-86
2022/03/13 05:06:58;;;;;;;16.48;8.80;;;6.20;93.10;;;;;;4180919;28;20102;-87
2022/03/13 05:09:03;;;;;;;16.52;8.77;;;6.20;93.10;;;;;;4184083;28;20037;-87
2022/03/13 05:11:07;;;;;;;16.17;8.80;;;6.80;93.30;;;;;;4181663;28;20056;-87
2022/03/13 05:13:09;;;;;;;17.20;9.13;;;6.10;93.10;;;;;;4183014;28;20091;-86
2022/03/13 05:15:10;;;;;;;17.33;9.68;;;6.00;93.10;;;;;;4180756;28;20048;-87
2022/03/13 05:17:11;;;;;;;16.08;8.63;;;6.00;93.10;;;;;;4183097;28;20410;-86
2022/03/13 05:19:12;;;;;;;17.00;8.55;;;6.10;93.20;;;;;;4182474;28;20111;-86
2022/03/13 05:21:14;;;;;;;15.40;9.02;;;6.00;93.00;;;;;;4165653;28;20049;-87
2022/03/13 05:23:14;;;;;;;14.68;8.00;;;6.70;93.30;;;;;;4182433;28;20087;-87
2022/03/13 05:25:17;;;;;;;15.10;8.48;;;6.80;93.40;;;;;;4182061;28;20127;-87
2022/03/13 05:27:17;;;;;;;16.33;8.38;;;5.70;93.10;;;;;;4183029;28;20045;-87
2022/03/13 05:29:18;;;;;;;17.25;9.57;;;5.80;93.00;;;;;;4165721;28;20171;-88
2022/03/13 05:31:19;;;;;;;17.23;8.88;;;5.90;93.10;;;;;;4183273;28;20115;-87
2022/03/13 05:33:19;;;;;;;21.60;8.90;;;5.80;93.00;;;;;;4181570;28;20061;-87
2022/03/13 05:35:20;;;;;;;17.60;8.93;;;6.30;93.20;;;;;;4183725;28;20055;-88
2022/03/13 05:37:23;;;;;;;14.02;7.75;;;5.80;93.10;;;;;;4165886;28;20068;-86
2022/03/13 05:39:25;;;;;;;20.10;9.18;;;6.00;93.00;;;;;;4182924;28;20079;-86
2022/03/13 05:41:28;;;;;;;16.33;8.48;;;5.70;93.00;;;;;;4182469;28;20036;-87
2022/03/13 05:43:31;;;;;;;16.38;9.10;;;5.70;92.90;;;;;;4182951;28;20106;-87
2022/03/13 05:45:32;;;;;;;15.88;9.43;;;5.70;93.00;;;;;;4181616;28;20059;-86
2022/03/13 05:47:32;;;;;;;18.27;8.73;;;6.60;93.20;;;;;;4165145;28;20124;-87
2022/03/13 05:49:34;;;;;;;13.48;7.00;;;5.70;92.90;;;;;;4182537;28;20045;-87
2022/03/13 05:51:37;;;;;;;17.23;8.57;;;7.00;93.20;;;;;;4164206;28;20056;-86
2022/03/13 05:53:40;;;;;;;15.07;7.88;;;5.00;92.80;;;;;;4180915;28;20049;-87
2022/03/13 05:55:41;;;;;;;19.83;8.32;;;6.80;93.10;;;;;;4182493;28;20479;-87
2022/03/13 05:57:42;;;;;;;15.18;8.02;;;6.40;92.90;;;;;;4182162;28;20083;-87
2022/03/13 05:59:42;;;;;;;14.73;7.53;;;5.70;92.70;;;;;;4164666;28;20076;-87
2022/03/13 06:01:43;;;;;;;16.38;9.00;;;6.70;92.80;;;;;;4182214;28;20044;-87
2022/03/13 06:03:44;;;;;;;18.15;8.07;;;7.00;92.90;;;;;;4165073;28;20052;-87
2022/03/13 06:05:45;;;;;;;15.73;8.57;;;6.50;92.60;;;;;;4165227;28;20104;-86
2022/03/13 06:07:46;;;;;;;16.65;7.80;;;6.50;92.60;;;;;;4181868;28;20045;-87
2022/03/13 06:09:47;;;;;;;16.30;8.65;;;5.80;92.20;;;;;;4183032;28;20124;-87
2022/03/13 06:11:48;;;;;;;16.15;8.27;;;5.80;92.30;;;;;;4183324;28;20057;-86
2022/03/13 06:13:49;;;;;;;14.85;8.57;;;5.90;92.00;;;;;;4164961;28;20124;-86
2022/03/13 06:15:50;;;;;;;17.42;8.57;;;7.20;92.40;;;;;;4182782;28;20064;-86
2022/03/13 06:17:51;;;;;;;13.38;7.05;;;5.90;92.20;;;;;;4182447;28;20135;-87
2022/03/13 06:19:55;;;;;;;15.07;7.95;;;5.90;91.90;;;;;;4182647;28;20056;-87
2022/03/13 06:21:55;;;;;;;18.20;9.35;;;6.50;91.90;;;;;;4170326;28;20368;-87
2022/03/13 06:23:56;;;;;;;14.63;7.55;;;7.10;92.10;;;;;;4150044;28;20133;-87
2022/03/13 06:25:59;;;;;;;16.00;8.10;;;6.80;91.90;;;;;;4149544;28;20050;-86
2022/03/13 06:28:00;;;;;;;16.67;8.20;;;6.50;91.80;;;;;;4181550;28;20052;-87
2022/03/13 06:30:09;;;;;;;14.93;8.05;;;6.80;91.90;;;;;;4165565;28;20045;-86
2022/03/13 06:32:10;;;;;;;15.82;8.05;;;6.60;91.70;;;;;;4182391;28;20526;-87
2022/03/13 06:34:11;;;;;;;15.13;8.00;;;7.20;91.90;;;;;;4181440;28;20045;-86
2022/03/13 06:36:12;;;;;;;18.25;8.52;;;7.20;91.80;;;;;;4181869;28;20168;-88
2022/03/13 06:38:12;;;;;;;14.68;8.07;;;5.90;91.60;;;;;;4171388;28;20084;-88
2022/03/13 06:40:17;;;;;;;16.00;8.55;;;7.20;91.80;;;;;;4171536;28;20060;-87
2022/03/13 06:42:20;;;;;;;13.43;7.70;;;6.60;91.70;;;;;;4188331;28;20113;-87
2022/03/13 06:44:23;;;;;;;22.98;10.18;;;5.90;91.40;;;;;;4171055;28;20455;-87
2022/03/13 06:46:24;;;;;;;16.55;8.23;;;5.90;91.50;;;;;;4183568;28;20139;-87
2022/03/13 06:48:26;;;;;;;14.65;7.78;;;4.90;91.20;;;;;;4182281;28;20033;-87
2022/03/13 06:50:27;;;;;;;17.23;9.63;;;7.10;91.70;;;;;;4182277;28;20446;-87
2022/03/13 06:52:27;;;;;;;15.57;8.45;;;6.90;91.70;;;;;;4181778;28;20044;-87
2022/03/13 06:54:28;;;;;;;15.25;7.70;;;7.40;91.80;;;;;;4182123;28;20052;-86
2022/03/13 06:56:29;;;;;;;14.85;8.35;;;6.10;91.50;;;;;;4165100;28;20045;-87
2022/03/13 06:58:31;;;;;;;14.70;7.43;;;6.00;91.60;;;;;;4181968;28;20087;-87
2022/03/13 07:00:32;;;;;;;13.18;7.97;;;6.90;91.90;;;;;;4165397;28;20045;-86
2022/03/13 07:02:33;;;;;;;17.67;7.65;;;7.20;91.90;;;;;;4182840;28;20044;-87
2022/03/13 07:04:33;;;;;;;14.25;7.43;;;7.20;91.90;;;;;;4182647;28;20625;-86
2022/03/13 07:06:34;;;;;;;14.90;8.63;;;6.10;91.60;;;;;;4164473;28;20146;-87
2022/03/13 07:08:36;;;;;;;12.90;7.43;;;6.00;91.60;;;;;;4182331;28;20443;-87
2022/03/13 07:10:38;;;;;;;13.85;7.88;;;6.00;91.50;;;;;;4165694;28;20065;-86
2022/03/13 07:12:41;;;;;;;15.77;7.32;;;7.00;91.80;;;;;;4182554;28;20495;-86
2022/03/13 07:14:45;;;;;;;15.57;7.80;;;6.90;91.70;;;;;;4182395;28;20048;-87
2022/03/13 07:16:46;;;;;;;17.58;9.00;;;5.90;91.40;;;;;;4164807;28;20148;-87
2022/03/13 07:18:46;;;;;;;13.70;7.93;;;6.60;91.50;;;;;;4181550;28;20049;-87
2022/03/13 07:20:47;;;;;;;13.60;7.00;;;6.70;91.60;;;;;;4183004;28;20084;-87
2022/03/13 07:22:49;;;;;;;13.32;7.88;;;7.30;91.70;;;;;;4181182;28;20044;-87
2022/03/13 07:24:51;;;;;;;15.57;7.45;;;6.10;91.30;;;;;;4164611;28;20050;-87
2022/03/13 07:26:52;;;;;;;14.13;7.53;;;7.30;91.60;;;;;;4181420;28;20053;-86
2022/03/13 07:28:53;;;;;;;13.82;7.68;;;6.80;91.40;;;;;;4195285;28;20117;-86
2022/03/13 07:30:56;;;;;;;14.48;7.55;;;6.10;91.30;;;;;;4181067;28;20040;-87
2022/03/13 07:32:57;;;;;;;13.38;7.63;;;6.80;91.30;;;;;;4165062;28;20821;-87
2022/03/13 07:34:57;;;;;;;13.13;7.30;;;6.80;91.20;;;;;;4181817;28;20056;-88
2022/03/13 07:37:03;;;;;;;18.02;7.63;;;7.20;91.40;;;;;;4181453;28;20124;-87
2022/03/13 07:39:04;;;;;;;16.10;7.63;;;6.20;91.00;;;;;;4181846;28;20059;-87
2022/03/13 07:41:05;;;;;;;15.98;7.70;;;;;;;;;;4181797;28;20041;-86
2022/03/13 07:43:06;;;;;;;17.73;8.20;;;;;;;;;;4182909;28;20394;-87
2022/03/13 07:45:08;;;;;;;12.90;7.70;;;;;;;;;;4165164;28;20061;-88
2022/03/13 07:47:10;;;;;;;13.65;8.07;;;;;;;;;;4165119;28;20084;-88
2022/03/13 07:49:11;;;;;;;14.80;8.60;;;;;;;;;;4182150;28;20049;-88
2022/03/13 07:51:19;;;;;;;13.27;8.13;;;;;;;;;;4181693;28;20104;-88
2022/03/13 07:53:21;;;;;;;13.18;7.72;;;;;;;;;;4182290;28;20053;-88
2022/03/13 07:55:24;;;;;;;18.63;7.32;;;;;;;;;;4165478;28;20542;-87
2022/03/13 07:57:30;;;;;;;14.27;7.45;;;;;;;;;;4182464;28;20564;-88
2022/03/13 07:59:32;;;;;;;15.32;8.65;;;;;;;;;;4182150;28;20483;-87
2022/03/13 08:01:33;;;;;;;13.95;7.55;;;;;;;;;;4181459;28;20124;-88
2022/03/13 08:03:38;;;;;;;12.68;7.97;;;;;;;;;;4181299;28;20053;-86
2022/03/13 08:05:40;;;;;;;15.95;7.45;;;;;;;;;;4180551;28;20383;-87
2022/03/13 08:07:41;;;;;;;16.20;7.15;;;;;;;;;;4164104;28;20052;-85
2022/03/13 08:09:43;;;;;;;14.98;7.68;;;;;;;;;;4182044;28;20044;-87
2022/03/13 08:11:44;;;;;;;15.27;8.45;;;;;;;;;;4181287;28;20048;-89
2022/03/13 08:13:47;;;;;;;14.77;6.80;;;;;;;;;;4182037;28;20059;-89
2022/03/13 08:15:48;;;;;;;15.90;8.00;;;;;;;;;;4164117;28;20527;-88
2022/03/13 08:17:50;;;;;;;15.73;7.30;;;;;;;;;;4184593;28;20052;-88
2022/03/13 08:19:54;;;;;;;14.95;8.57;;;;;;;;;;4183348;28;20095;-89
2022/03/13 08:21:55;;;;;;;16.88;7.78;;;;;;;;;;4184264;28;20077;-88
2022/03/13 08:23:57;;;;;;;12.13;7.00;;;;;;;;;;4164732;28;20124;-88
2022/03/13 08:25:59;;;;;;;13.27;6.95;;;;;;;;;;4179998;28;20136;-88
2022/03/13 08:28:01;;;;;;;14.68;7.10;;;;;;;;;;4180596;28;20043;-88
2022/03/13 08:30:02;;;;;;;12.90;7.50;;;;;;;;;;4181083;28;20047;-88
2022/03/13 08:32:05;;;;;;;15.25;7.25;;;;;;;;;;4180782;28;20576;-89
2022/03/13 08:34:09;;;;;;;16.58;8.85;;;;;;;;;;4181079;28;20061;-88
2022/03/13 08:36:10;;;;;;;14.05;7.75;;;;;;;;;;4164332;28;20128;-88
2022/03/13 08:38:11;;;;;;;11.27;6.78;;;;;;;;;;4180407;28;20084;-89
2022/03/13 08:40:13;;;;;;;12.45;7.00;;;;;;;;;;4164192;28;20050;-88
2022/03/13 08:42:14;;;;;;;11.23;6.57;;;;;;;;;;4183577;28;20132;-89
2022/03/13 08:44:15;;;;;;;12.20;8.05;;;;;;;;;;4183096;28;20568;-89
2022/03/13 08:46:18;;;;;;;13.18;7.47;;;;;;;;;;4182912;28;20102;-89
2022/03/13 08:48:22;;;;;;;15.90;7.88;;;;;;;;;;4183138;28;20087;-88
2022/03/13 08:50:24;;;;;;;13.02;7.55;;;;;;;;;;4184554;28;20072;-88
2022/03/13 08:52:25;;;;;;;16.10;7.93;;;;;;;;;;4181971;28;20048;-88
2022/03/13 08:54:26;;;;;;;11.13;6.70;;;;;;;;;;4166056;28;20053;-88
2022/03/13 08:56:27;;;;;;;13.68;6.63;;;;;;;;;;4183005;28;20107;-88
2022/03/13 08:58:28;;;;;;;14.57;6.65;;;;;;;;;;4182641;28;20120;-88
2022/03/13 09:00:32;;;;;;;11.90;7.38;;;;;;;;;;4182654;28;20052;-88
2022/03/13 09:02:34;;;;;;;12.75;7.00;;;;;;;;;;4182434;28;20049;-87
2022/03/13 09:04:35;;;;;;;14.15;7.07;;;;;;;;;;4183210;28;20037;-89
2022/03/13 09:06:39;;;;;;;14.93;7.68;;;;;;;;;;4182672;28;20132;-88
2022/03/13 09:08:41;;;;;;;13.75;7.47;;;;;;;;;;4182513;28;20967;-88
2022/03/13 09:10:44;;;;;;;15.95;7.50;;;;;;;;;;4166203;28;20255;-88
2022/03/13 09:12:47;;;;;;;16.20;7.63;;;;;;;;;;4184200;28;20383;-89
2022/03/13 09:14:48;;;;;;;17.00;8.35;;;;;;;;;;4181986;28;20107;-87
2022/03/13 09:16:49;;;;;;;14.50;7.32;;;;;;;;;;4167106;28;20109;-88
2022/03/13 09:18:50;;;;;;;17.60;8.15;;;;;;;;;;4184433;28;20052;-88
2022/03/13 09:20:51;;;;;;;14.73;7.05;;;;;;;;;;4183064;28;20107;-89
2022/03/13 09:22:54;;;;;;;11.80;7.05;;;;;;;;;;4166186;28;20046;-89
2022/03/13 09:24:57;;;;;;;12.93;7.88;;;;;;;;;;4182382;28;20442;-89
2022/03/13 09:26:58;;;;;;;14.20;6.97;;;;;;;;;;4184106;28;20128;-88
2022/03/13 09:28:59;;;;;;;15.07;7.90;;;;;;;;;;4184099;28;20048;-89
2022/03/13 09:31:00;;;;;;;13.63;7.22;;;;;;;;;;4182469;28;20048;-89
2022/03/13 09:33:01;;;;;;;11.98;6.60;;;;;;;;;;4181858;28;20056;-89
2022/03/13 09:35:03;;;;;;;11.93;6.80;;;;;;;;;;4165993;28;20084;-89
2022/03/13 09:37:04;;;;;;;12.63;6.75;;;;;;;;;;4182907;28;20045;-89
2022/03/13 09:39:06;;;;;;;13.70;7.68;;;;;;;;;;4182935;28;20055;-89
2022/03/13 09:41:08;;;;;;;13.80;7.28;;;;;;;;;;4183291;28;20041;-88
2022/03/13 09:43:10;;;;;;;14.27;7.60;;;;;;;;;;4181607;28;20072;-87
2022/03/13 09:45:13;;;;;;;15.00;6.85;;;;;;;;;;4182494;28;20048;-88
2022/03/13 09:47:15;;;;;;;11.82;7.13;;;;;;;;;;4183931;28;20479;-88
2022/03/13 09:49:17;;;;;;;10.50;6.47;;;;;;;;;;4183144;28;20043;-88
2022/03/13 09:51:18;;;;;;;11.30;7.07;;;;;;;;;;4182757;28;20045;-88
2022/03/13 09:53:21;;;;;;;15.48;7.88;;;;;;;;;;4182437;28;20060;-87
2022/03/13 09:55:23;;;;;;;10.88;6.53;;;;;;;;;;4182600;28;20041;-88
2022/03/13 09:57:25;;;;;;;13.48;6.90;;;;;;;;;;4182136;28;20395;-88
2022/03/13 09:59:26;;;;;;;18.88;7.57;;;;;;;;;;4183885;28;20044;-88
2022/03/13 10:01:28;;;;;;;12.68;6.82;;;;;;;;;;4165441;28;20045;-89
2022/03/13 10:03:29;;;;;;;14.60;6.90;;;;;;;;;;4181377;28;20119;-89
2022/03/13 10:05:40;;;;;;;11.07;6.60;;;;;;;;;;4182290;28;20519;-89
2022/03/13 10:08:42;;;;;;;10.13;6.57;;;;;;;;;;4183782;28;20049;-87
2022/03/13 10:10:25;;;;;;;12.65;6.68;;;;;;;;;;4182356;28;20210;-88
2022/03/13 10:12:26;;;;;;;15.13;6.57;;;;;;;;;;4182879;28;20059;-88
2022/03/13 10:14:27;;;;;;;11.55;6.53;;;;;;;;;;4182304;28;20061;-88
2022/03/13 10:16:36;;;;;;;13.18;7.00;;;;;;;;;;4165760;28;20050;-88
2022/03/13 10:18:37;;;;;;;9.93;6.80;;;;;;;;;;4183291;28;20063;-88
2022/03/13 10:20:41;;;;;;;13.38;8.27;;;;;;;;;;4183059;28;20067;-88
2022/03/13 10:22:43;;;;;;;15.73;7.90;;;;;;;;;;4182603;28;20052;-88
2022/03/13 10:24:46;;;;;;;12.57;7.47;;;;;;;;;;4180677;28;20124;-88
2022/03/13 10:26:47;;;;;;;12.75;7.03;;;;;;;;;;4183453;28;20053;-87
2022/03/13 10:28:49;;;;;;;12.48;7.18;;;;;;;;;;4183279;28;20131;-87
2022/03/13 10:30:59;;;;;;;14.07;8.23;;;;;;;;;;4183462;28;20100;-88
2022/03/13 10:33:01;;;;;;;11.88;7.57;;;;;;;;;;4182876;28;20068;-89
2022/03/13 10:35:02;;;;;;;12.45;7.88;;;;;;;;;;4183411;28;20049;-88
2022/03/13 10:37:04;;;;;;;13.20;7.00;;;;;;;;;;4183329;28;20478;-89
2022/03/13 10:39:10;;;;;;;12.70;7.72;;;;;;;;;;4182547;28;20049;-88
2022/03/13 10:41:13;;;;;;;11.73;7.53;;;;;;;;;;4181351;28;20114;-87
2022/03/13 10:43:19;;;;;;;12.38;7.65;;;;;;;;;;4181961;28;20400;-88
2022/03/13 10:45:36;;;;;;;13.23;8.18;;;;;;;;;;4184342;28;20120;-87
2022/03/13 10:47:38;;;;;;;13.07;7.75;;;;;;;;;;4182996;28;20594;-88
2022/03/13 10:49:45;;;;;;;13.77;7.95;;;;;;;;;;4181175;28;20076;-88
2022/03/13 10:51:47;;;;;;;12.88;7.60;;;;;;;;;;4181776;28;20053;-89
2022/03/13 10:53:49;;;;;;;13.68;8.25;;;;;;;;;;4182796;28;20044;-89
2022/03/13 10:56:07;;;;;;;12.93;7.70;;;;;;;;;;4181011;28;20067;-88
2022/03/13 10:58:09;;;;;;;13.00;8.05;;;;;;;;;;4181129;28;20519;-88
2022/03/13 11:00:16;;;;;;;12.77;7.45;;;;;;;;;;4182600;28;20041;-88
2022/03/13 11:02:18;;;;;;;14.48;7.55;;;;;;;;;;4182017;28;20052;-88
2022/03/13 11:04:25;;;;;;;14.95;8.35;;;;;;;;;;4181070;28;20136;-88
2022/03/13 11:06:27;;;;;;;14.35;8.02;;;;;;;;;;4182931;28;20080;-87
2022/03/13 11:08:28;;;;;;;11.00;7.60;;;;;;;;;;4180619;28;20044;-88
2022/03/13 11:10:30;;;;;;;17.88;8.10;;;;;;;;;;4180743;28;20247;-88
2022/03/13 11:12:32;;;;;;;12.63;7.93;;;;;;;;;;4180859;28;20037;-88
2022/03/13 11:14:34;;;;;;;14.05;7.95;;;;;;;;;;4181918;28;20052;-89
2022/03/13 11:16:36;;;;;;;13.02;7.18;;;;;;;;;;4180394;28;20057;-89
2022/03/13 11:18:38;;;;;;;13.45;8.18;;;;;;;;;;4175961;28;20140;-88
2022/03/13 11:20:40;;;;;;;18.08;8.15;;;;;;;;;;4166217;28;20070;-89
2022/03/13 11:22:41;;;;;;;14.73;8.48;;;;;;;;;;4187320;28;20155;-88
2022/03/13 11:24:42;;;;;;;13.00;7.60;;;;;;;;;;4164265;28;20045;-87
2022/03/13 11:26:44;;;;;;;11.45;7.72;;;;;;;;;;4173967;28;20050;-88
2022/03/13 11:28:46;;;;;;;11.70;7.47;;;;;;;;;;4178570;28;20053;-86
2022/03/13 11:30:47;;;;;;;18.92;9.10;;;;;;;;;;4181886;28;20498;-87
2022/03/13 11:32:52;;;;;;;15.35;8.30;;;;;;;;;;4182345;28;20053;-89
2022/03/13 11:35:11;;;;;;;13.00;7.30;;;;;;;;;;4180899;28;20044;-88
2022/03/13 11:37:30;;;;;;;11.00;7.15;;;;;;;;;;4180553;28;20100;-87